createdAt,value
2019-05-10T00:00:39.970Z,8.10
2019-05-10T00:03:26.734Z,8.10
2019-05-10T00:06:13.429Z,8.10
2019-05-10T00:08:47.472Z,8.20
2019-05-10T00:11:20.405Z,8.20
2019-05-10T00:13:53.476Z,8.30
2019-05-10T00:16:22.259Z,8.30
2019-05-10T00:18:50.862Z,8.30
2019-05-10T00:21:19.440Z,8.30
2019-05-10T00:23:48.061Z,8.30
2019-05-10T00:26:16.801Z,8.30
2019-05-10T00:28:45.486Z,8.20
2019-05-10T00:31:14.238Z,8.20
2019-05-10T00:33:42.801Z,8.20
2019-05-10T00:36:11.419Z,8.20
2019-05-10T00:38:40.139Z,8.20
2019-05-10T00:41:08.786Z,8.10
2019-05-10T00:43:37.428Z,8.10
2019-05-10T00:46:06.122Z,8.10
2019-05-10T00:48:34.809Z,8.00
2019-05-10T00:51:03.513Z,8.00
2019-05-10T00:53:32.181Z,7.90
2019-05-10T00:56:00.792Z,7.90
2019-05-10T00:58:29.478Z,7.90
2019-05-10T01:00:58.166Z,7.90
2019-05-10T01:03:26.851Z,7.80
2019-05-10T01:05:55.506Z,7.80
2019-05-10T01:08:24.147Z,7.80
2019-05-10T01:10:52.834Z,7.80
2019-05-10T01:13:21.524Z,7.80
2019-05-10T01:15:50.209Z,7.80
2019-05-10T01:18:18.899Z,7.70
2019-05-10T01:20:47.580Z,7.70
2019-05-10T01:23:16.269Z,7.70
2019-05-10T01:25:44.954Z,7.70
2019-05-10T01:28:13.562Z,7.70
2019-05-10T01:30:42.173Z,7.60
2019-05-10T01:33:10.887Z,7.60
2019-05-10T01:35:39.545Z,7.60
2019-05-10T01:38:08.234Z,7.60
2019-05-10T01:40:36.919Z,7.60
2019-05-10T01:43:05.760Z,7.60
2019-05-10T01:45:34.447Z,7.60
2019-05-10T01:48:03.210Z,7.50
2019-05-10T01:50:34.521Z,7.50
2019-05-10T01:53:03.104Z,7.50
2019-05-10T01:55:31.716Z,7.40
2019-05-10T01:58:00.318Z,7.40
2019-05-10T02:00:28.971Z,7.30
2019-05-10T02:02:57.672Z,7.30
2019-05-10T02:05:26.287Z,7.30
2019-05-10T02:07:54.892Z,7.20
2019-05-10T02:10:23.506Z,7.20
2019-05-10T02:12:52.129Z,7.20
2019-05-10T02:15:20.729Z,7.10
2019-05-10T02:17:49.331Z,7.10
2019-05-10T02:20:17.937Z,7.00
2019-05-10T02:22:46.553Z,7.00
2019-05-10T02:25:15.185Z,7.00
2019-05-10T02:27:43.792Z,6.90
2019-05-10T02:30:12.386Z,6.90
2019-05-10T02:32:40.990Z,6.90
2019-05-10T02:35:09.663Z,6.90
2019-05-10T02:37:38.237Z,6.80
2019-05-10T02:40:06.933Z,6.80
2019-05-10T02:42:35.544Z,6.80
2019-05-10T02:45:07.381Z,6.80
2019-05-10T02:47:36.008Z,6.70
2019-05-10T02:50:07.598Z,6.70
2019-05-10T02:52:36.285Z,6.70
2019-05-10T02:55:07.233Z,6.60
2019-05-10T02:57:36.799Z,6.60
2019-05-10T03:00:06.061Z,6.60
2019-05-10T03:02:35.413Z,6.60
2019-05-10T03:05:04.897Z,6.60
2019-05-10T03:07:35.169Z,6.50
2019-05-10T03:10:15.861Z,6.50
2019-05-10T03:12:44.587Z,6.50
2019-05-10T03:15:14.110Z,6.50
2019-05-10T03:17:42.852Z,6.50
2019-05-10T03:20:11.733Z,6.40
2019-05-10T03:22:43.566Z,6.40
2019-05-10T03:25:13.558Z,6.40
2019-05-10T03:27:42.263Z,6.40
2019-05-10T03:30:10.895Z,6.40
2019-05-10T03:32:39.559Z,6.40
2019-05-10T03:35:08.342Z,6.30
2019-05-10T03:37:37.076Z,6.40
2019-05-10T03:40:06.611Z,6.40
2019-05-10T03:42:36.186Z,6.40
2019-05-10T03:45:06.598Z,6.40
2019-05-10T03:47:35.264Z,6.30
2019-05-10T03:50:05.485Z,6.40
2019-05-10T03:52:34.089Z,6.40
2019-05-10T03:55:04.361Z,6.30
2019-05-10T03:57:32.968Z,6.40
2019-05-10T04:00:01.575Z,6.40
2019-05-10T04:02:30.261Z,6.40
2019-05-10T04:04:58.909Z,6.40
2019-05-10T04:07:27.520Z,6.50
2019-05-10T04:09:57.203Z,6.50
2019-05-10T04:12:25.849Z,6.50
2019-05-10T04:14:54.461Z,6.50
2019-05-10T04:17:23.073Z,6.50
2019-05-10T04:19:51.693Z,6.60
2019-05-10T04:22:20.341Z,6.60
2019-05-10T04:24:48.949Z,6.60
2019-05-10T04:27:31.637Z,6.60
2019-05-10T04:29:47.784Z,6.70
2019-05-10T04:32:16.522Z,6.70
2019-05-10T04:34:45.300Z,6.70
2019-05-10T04:37:13.953Z,6.70
2019-05-10T04:39:42.671Z,6.80
2019-05-10T04:42:11.361Z,6.80
2019-05-10T04:44:39.954Z,6.80
2019-05-10T04:47:08.589Z,6.80
2019-05-10T04:49:38.276Z,6.80
2019-05-10T04:52:06.896Z,6.90
2019-05-10T04:54:35.496Z,7.00
2019-05-10T04:57:04.171Z,7.00
2019-05-10T04:59:32.817Z,7.10
2019-05-10T05:02:01.487Z,7.10
2019-05-10T05:04:30.108Z,7.20
2019-05-10T05:06:58.722Z,7.30
2019-05-10T05:09:27.334Z,7.40
2019-05-10T05:11:55.970Z,7.40
2019-05-10T05:14:24.589Z,7.40
2019-05-10T05:16:53.312Z,7.50
2019-05-10T05:19:21.952Z,7.60
2019-05-10T05:21:50.562Z,7.60
2019-05-10T05:24:22.881Z,7.70
2019-05-10T05:26:50.474Z,7.70
2019-05-10T05:29:19.153Z,7.80
2019-05-10T05:31:47.737Z,7.80
2019-05-10T05:34:16.381Z,7.90
2019-05-10T05:36:45.074Z,8.00
2019-05-10T05:39:13.692Z,8.00
2019-05-10T05:41:49.121Z,8.10
2019-05-10T05:44:12.516Z,8.20
2019-05-10T05:46:42.307Z,8.20
2019-05-10T05:49:11.039Z,8.30
2019-05-10T05:51:39.656Z,8.40
2019-05-10T05:54:08.309Z,8.40
2019-05-10T05:56:36.972Z,8.40
2019-05-10T05:59:08.601Z,8.50
2019-05-10T06:01:36.022Z,8.60
2019-05-10T06:04:06.220Z,8.60
2019-05-10T06:06:34.885Z,8.70
2019-05-10T06:09:05.718Z,8.70
2019-05-10T06:11:35.993Z,8.70
2019-05-10T06:14:10.764Z,8.80
2019-05-10T06:16:35.253Z,8.80
2019-05-10T06:19:03.866Z,8.90
2019-05-10T06:21:32.481Z,9.00
2019-05-10T06:24:01.089Z,9.10
2019-05-10T06:26:29.696Z,9.30
2019-05-10T06:29:03.817Z,9.40
2019-05-10T06:31:28.728Z,9.50
2019-05-10T06:33:57.336Z,9.60
2019-05-10T06:36:25.953Z,9.70
2019-05-10T06:38:54.558Z,9.80
2019-05-10T06:41:23.165Z,9.90
2019-05-10T06:43:53.098Z,10.00
2019-05-10T06:46:23.613Z,10.20
2019-05-10T06:48:52.260Z,10.30
2019-05-10T06:51:20.874Z,10.50
2019-05-10T06:53:53.583Z,10.60
2019-05-10T06:56:19.786Z,10.70
2019-05-10T06:58:48.434Z,10.80
2019-05-10T07:01:17.044Z,11.00
2019-05-10T07:03:45.728Z,11.20
2019-05-10T07:06:14.343Z,11.30
2019-05-10T07:08:45.608Z,11.50
2019-05-10T07:11:13.161Z,11.60
2019-05-10T07:13:47.142Z,11.70
2019-05-10T07:16:14.929Z,11.90
2019-05-10T07:18:43.324Z,12.00
2019-05-10T07:21:11.940Z,12.00
2019-05-10T07:23:45.161Z,12.10
2019-05-10T07:26:10.797Z,12.20
2019-05-10T07:28:39.420Z,12.30
2019-05-10T07:31:08.023Z,12.30
2019-05-10T07:33:37.220Z,12.40
2019-05-10T07:36:14.494Z,12.40
2019-05-10T07:38:37.245Z,12.50
2019-05-10T07:41:05.861Z,12.50
2019-05-10T07:43:34.479Z,12.60
2019-05-10T07:46:06.164Z,12.60
2019-05-10T07:48:33.305Z,12.60
2019-05-10T07:51:01.932Z,12.60
2019-05-10T07:53:30.556Z,12.70
2019-05-10T07:56:00.063Z,12.70
2019-05-10T07:58:29.369Z,12.80
2019-05-10T08:00:57.990Z,12.80
2019-05-10T08:03:29.651Z,12.80
2019-05-10T08:06:01.792Z,12.80
2019-05-10T08:08:29.664Z,12.90
2019-05-10T08:10:59.331Z,12.90
2019-05-10T08:13:28.561Z,13.00
2019-05-10T08:15:59.327Z,13.00
2019-05-10T08:18:29.313Z,13.00
2019-05-10T08:21:02.181Z,13.00
2019-05-10T08:23:28.155Z,13.00
2019-05-10T08:25:56.916Z,13.10
2019-05-10T08:28:27.937Z,13.00
2019-05-10T08:30:58.786Z,13.10
2019-05-10T08:33:26.103Z,13.10
2019-05-10T08:36:00.456Z,13.10
2019-05-10T08:38:24.981Z,13.20
2019-05-10T08:40:53.597Z,13.20
2019-05-10T08:43:24.592Z,13.20
2019-05-10T08:45:52.602Z,13.20
2019-05-10T08:48:23.311Z,13.20
2019-05-10T08:50:57.033Z,13.20
2019-05-10T08:53:23.099Z,13.30
2019-05-10T08:55:52.620Z,13.30
2019-05-10T08:58:31.134Z,13.40
2019-05-10T09:01:10.211Z,13.40
2019-05-10T09:03:22.749Z,13.40
2019-05-10T09:05:52.475Z,13.50
2019-05-10T09:08:27.319Z,13.50
2019-05-10T09:10:53.078Z,13.60
2019-05-10T09:13:22.903Z,13.60
2019-05-10T09:15:56.140Z,13.70
2019-05-10T09:18:22.925Z,13.70
2019-05-10T09:20:54.152Z,13.80
2019-05-10T09:23:22.824Z,13.80
2019-05-10T09:25:52.624Z,13.80
2019-05-10T09:28:22.313Z,13.90
2019-05-10T09:30:59.409Z,14.00
2019-05-10T09:33:22.475Z,14.00
2019-05-10T09:35:54.666Z,14.10
2019-05-10T09:38:22.163Z,14.10
2019-05-10T09:40:55.969Z,14.10
2019-05-10T09:43:24.041Z,14.20
2019-05-10T09:45:53.106Z,14.10
2019-05-10T09:48:22.811Z,14.10
2019-05-10T09:50:55.110Z,14.20
2019-05-10T09:53:26.245Z,14.20
2019-05-10T09:56:00.163Z,14.10
2019-05-10T09:58:48.561Z,14.10
2019-05-10T10:01:20.711Z,14.10
2019-05-10T10:03:47.789Z,14.00
2019-05-10T10:06:16.490Z,14.00
2019-05-10T10:08:51.206Z,14.00
2019-05-10T10:11:18.171Z,14.00
2019-05-10T10:13:50.164Z,14.00
2019-05-10T10:16:16.011Z,14.00
2019-05-10T10:18:47.513Z,14.00
2019-05-10T10:21:18.819Z,14.00
2019-05-10T10:23:45.209Z,14.00
2019-05-10T10:26:20.387Z,14.00
2019-05-10T10:28:44.090Z,14.10
2019-05-10T10:31:26.246Z,14.20
2019-05-10T10:33:43.389Z,14.40
2019-05-10T10:36:13.217Z,14.50
2019-05-10T10:38:45.340Z,14.60
2019-05-10T10:41:17.064Z,14.80
2019-05-10T10:43:42.465Z,15.00
2019-05-10T10:46:12.516Z,15.20
2019-05-10T10:48:43.507Z,15.30
2019-05-10T10:51:11.665Z,15.40
2019-05-10T10:53:40.277Z,15.50
2019-05-10T10:56:08.858Z,15.60
2019-05-10T10:58:37.466Z,15.70
2019-05-10T11:01:10.612Z,15.70
2019-05-10T11:03:38.219Z,15.80
2019-05-10T11:06:06.840Z,15.90
2019-05-10T11:08:35.429Z,15.90
2019-05-10T11:11:04.123Z,15.90
2019-05-10T11:13:57.385Z,15.80
2019-05-10T11:16:09.590Z,15.80
2019-05-10T11:18:33.271Z,15.80
2019-05-10T11:21:02.150Z,15.70
2019-05-10T11:23:38.720Z,15.70
2019-05-10T11:26:02.259Z,15.60
2019-05-10T11:28:38.558Z,15.50
2019-05-10T11:31:01.452Z,15.50
2019-05-10T11:33:33.390Z,15.50
2019-05-10T11:36:04.083Z,15.50
2019-05-10T11:38:31.863Z,15.50
2019-05-10T11:41:01.965Z,15.50
2019-05-10T11:43:31.336Z,15.50
2019-05-10T11:46:00.201Z,15.40
2019-05-10T11:48:36.932Z,15.30
2019-05-10T11:50:59.017Z,15.30
2019-05-10T11:53:27.648Z,15.30
2019-05-10T11:55:56.253Z,15.30
2019-05-10T11:58:24.874Z,15.30
2019-05-10T12:00:59.274Z,15.30
2019-05-10T12:03:23.741Z,15.40
2019-05-10T12:06:04.564Z,15.40
2019-05-10T12:08:22.544Z,15.40
2019-05-10T12:10:53.791Z,15.50
2019-05-10T12:13:24.915Z,15.60
2019-05-10T12:15:52.240Z,15.60
2019-05-10T12:18:26.881Z,15.70
2019-05-10T12:21:08.029Z,15.80
2019-05-10T12:23:29.675Z,15.90
2019-05-10T12:26:59.208Z,16.00
2019-05-10T12:28:28.539Z,16.30
2019-05-10T12:30:53.108Z,16.50
2019-05-10T12:33:27.515Z,16.70
2019-05-10T12:35:52.937Z,16.90
2019-05-10T12:38:23.712Z,17.10
2019-05-10T12:40:51.774Z,17.20
2019-05-10T12:43:21.070Z,17.30
2019-05-10T12:45:51.756Z,17.50
2019-05-10T12:48:23.194Z,17.50
2019-05-10T12:50:54.470Z,17.60
2019-05-10T12:53:21.465Z,17.60
2019-05-10T12:55:50.317Z,17.70
2019-05-10T12:58:18.994Z,17.80
2019-05-10T13:00:52.741Z,17.90
2019-05-10T13:03:19.368Z,17.90
2019-05-10T13:05:52.546Z,18.00
2019-05-10T13:08:18.282Z,18.20
2019-05-10T13:10:49.777Z,18.30
2019-05-10T13:13:17.455Z,18.10
2019-05-10T13:15:47.323Z,18.00
2019-05-10T13:18:15.947Z,17.80
2019-05-10T13:20:44.541Z,17.60
2019-05-10T13:23:16.114Z,17.50
2019-05-10T13:25:43.417Z,17.40
2019-05-10T13:28:12.042Z,17.40
2019-05-10T13:30:40.610Z,17.50
2019-05-10T13:33:09.228Z,17.50
2019-05-10T13:35:37.922Z,17.50
2019-05-10T13:38:06.669Z,17.40
2019-05-10T13:40:38.938Z,17.40
2019-05-10T13:43:27.106Z,17.40
2019-05-10T13:45:55.181Z,17.30
2019-05-10T13:48:26.981Z,17.30
2019-05-10T13:50:55.774Z,17.20
2019-05-10T13:53:24.449Z,17.10
2019-05-10T13:55:53.092Z,17.10
2019-05-10T13:58:21.824Z,17.00
2019-05-10T14:00:50.433Z,16.90
2019-05-10T14:03:19.033Z,17.00
2019-05-10T14:05:47.649Z,16.90
2019-05-10T14:08:16.261Z,16.90
2019-05-10T14:10:44.851Z,16.80
2019-05-10T14:13:16.642Z,16.60
2019-05-10T14:15:43.684Z,16.50
2019-05-10T14:18:12.366Z,16.50
2019-05-10T14:20:40.972Z,16.40
2019-05-10T14:23:09.559Z,16.30
2019-05-10T14:25:38.951Z,16.30
2019-05-10T14:28:09.510Z,16.30
2019-05-10T14:30:38.007Z,16.30
2019-05-10T14:33:08.648Z,16.30
2019-05-10T14:35:37.840Z,16.30
2019-05-10T14:38:08.709Z,16.30
2019-05-10T14:40:36.674Z,16.30
2019-05-10T14:43:05.298Z,16.30
2019-05-10T14:45:34.219Z,16.30
2019-05-10T14:48:02.954Z,16.30
2019-05-10T14:50:31.574Z,16.30
2019-05-10T14:53:00.304Z,16.30
2019-05-10T14:55:34.502Z,16.30
2019-05-10T14:58:00.256Z,16.30
2019-05-10T15:00:28.947Z,16.20
2019-05-10T15:03:02.089Z,16.20
2019-05-10T15:05:28.846Z,16.10
2019-05-10T15:07:57.460Z,16.10
2019-05-10T15:10:26.045Z,16.00
2019-05-10T15:12:54.654Z,15.90
2019-05-10T15:15:23.245Z,15.90
2019-05-10T15:17:55.061Z,15.80
2019-05-10T15:20:22.161Z,15.80
2019-05-10T15:22:50.776Z,15.70
2019-05-10T15:25:19.396Z,15.70
2019-05-10T15:27:47.978Z,15.60
2019-05-10T15:30:16.641Z,15.50
2019-05-10T15:32:45.208Z,15.50
2019-05-10T15:35:13.825Z,15.40
2019-05-10T15:37:46.485Z,15.40
2019-05-10T15:40:12.689Z,15.30
2019-05-10T15:42:41.300Z,15.30
2019-05-10T15:45:14.657Z,15.30
2019-05-10T15:47:50.665Z,15.30
2019-05-10T15:50:10.595Z,15.20
2019-05-10T15:52:46.647Z,15.20
2019-05-10T15:55:10.024Z,15.20
2019-05-10T15:57:38.609Z,15.20
2019-05-10T16:00:07.365Z,15.30
2019-05-10T16:02:36.045Z,15.30
2019-05-10T16:05:23.279Z,15.30
2019-05-10T16:07:38.200Z,15.30
2019-05-10T16:10:06.890Z,15.40
2019-05-10T16:12:37.803Z,15.40
2019-05-10T16:15:07.383Z,15.50
2019-05-10T16:17:36.007Z,15.50
2019-05-10T16:20:06.030Z,15.60
2019-05-10T16:22:34.645Z,15.70
2019-05-10T16:25:05.050Z,15.70
2019-05-10T16:27:33.909Z,15.70
2019-05-10T16:30:05.136Z,15.70
2019-05-10T16:32:34.646Z,15.70
2019-05-10T16:35:05.593Z,15.60
2019-05-10T16:37:34.560Z,15.60
2019-05-10T16:40:04.059Z,15.60
2019-05-10T16:42:34.444Z,15.50
2019-05-10T16:45:02.884Z,15.50
2019-05-10T16:47:31.580Z,15.50
2019-05-10T16:50:00.180Z,15.50
2019-05-10T16:52:28.883Z,15.50
2019-05-10T16:55:03.477Z,15.50
2019-05-10T16:57:31.899Z,15.50
2019-05-10T17:00:01.991Z,15.50
2019-05-10T17:02:29.331Z,15.50
2019-05-10T17:04:57.962Z,15.50
2019-05-10T17:07:26.573Z,15.50
2019-05-10T17:09:56.273Z,15.50
2019-05-10T17:12:27.734Z,15.50
2019-05-10T17:14:56.301Z,15.40
2019-05-10T17:17:25.449Z,15.40
2019-05-10T17:19:54.075Z,15.30
2019-05-10T17:22:22.670Z,15.30
2019-05-10T17:24:51.358Z,15.20
2019-05-10T17:27:19.997Z,15.20
2019-05-10T17:29:49.771Z,15.10
2019-05-10T17:32:24.722Z,15.10
2019-05-10T17:34:49.709Z,15.10
2019-05-10T17:37:18.565Z,15.10
2019-05-10T17:39:47.303Z,15.10
2019-05-10T17:42:16.009Z,15.00
2019-05-10T17:44:44.690Z,15.00
2019-05-10T17:47:13.544Z,15.00
2019-05-10T17:49:42.198Z,15.00
2019-05-10T17:52:11.088Z,15.00
2019-05-10T17:54:40.981Z,15.00
2019-05-10T17:57:10.850Z,14.90
2019-05-10T17:59:40.151Z,14.90
2019-05-10T18:02:28.380Z,14.90
2019-05-10T18:04:59.675Z,14.90
2019-05-10T18:07:27.224Z,14.80
2019-05-10T18:09:55.912Z,14.80
2019-05-10T18:12:27.105Z,14.80
2019-05-10T18:14:55.776Z,14.70
2019-05-10T18:17:26.248Z,14.70
2019-05-10T18:19:56.662Z,14.60
2019-05-10T18:22:26.353Z,14.60
2019-05-10T18:24:55.022Z,14.50
2019-05-10T18:27:23.750Z,14.50
2019-05-10T18:29:52.696Z,14.40
2019-05-10T18:32:21.271Z,14.30
2019-05-10T18:34:49.898Z,14.20
2019-05-10T18:37:21.647Z,14.10
2019-05-10T18:39:52.991Z,14.00
2019-05-10T18:42:25.265Z,13.90
2019-05-10T18:44:52.082Z,13.90
2019-05-10T18:47:20.113Z,13.80
2019-05-10T18:49:48.738Z,13.70
2019-05-10T18:52:17.480Z,13.60
2019-05-10T18:54:46.292Z,13.60
2019-05-10T18:57:18.958Z,13.50
2019-05-10T18:59:47.044Z,13.50
2019-05-10T19:02:17.692Z,13.50
2019-05-10T19:04:51.942Z,13.40
2019-05-10T19:07:17.145Z,13.40
2019-05-10T19:09:45.990Z,13.30
2019-05-10T19:12:18.745Z,13.30
2019-05-10T19:14:45.228Z,13.20
2019-05-10T19:17:14.117Z,13.20
2019-05-10T19:19:43.024Z,13.10
2019-05-10T19:22:11.633Z,13.10
2019-05-10T19:24:40.386Z,13.00
2019-05-10T19:27:09.442Z,13.00
2019-05-10T19:29:45.697Z,12.90
2019-05-10T19:32:11.432Z,12.90
2019-05-10T19:34:39.114Z,12.80
2019-05-10T19:37:07.987Z,12.80
2019-05-10T19:39:37.043Z,12.80
2019-05-10T19:42:06.695Z,12.80
2019-05-10T19:44:40.637Z,12.80
2019-05-10T19:47:05.626Z,12.80
2019-05-10T19:49:34.248Z,12.70
2019-05-10T19:52:02.865Z,12.70
2019-05-10T19:54:31.532Z,12.70
2019-05-10T19:57:00.161Z,12.70
2019-05-10T19:59:28.843Z,12.70
2019-05-10T20:01:57.429Z,12.70
2019-05-10T20:04:32.637Z,12.70
2019-05-10T20:07:02.176Z,12.70
2019-05-10T20:09:30.940Z,12.70
2019-05-10T20:11:59.577Z,12.70
2019-05-10T20:14:28.234Z,12.80
2019-05-10T20:16:56.962Z,12.70
2019-05-10T20:19:25.722Z,12.70
2019-05-10T20:22:06.620Z,12.70
2019-05-10T20:24:35.297Z,12.70
2019-05-10T20:27:03.909Z,12.70
2019-05-10T20:29:33.273Z,12.70
2019-05-10T20:32:02.112Z,12.70
2019-05-10T20:34:30.834Z,12.60
2019-05-10T20:36:59.442Z,12.60
2019-05-10T20:39:28.113Z,12.50
2019-05-10T20:41:56.766Z,12.50
2019-05-10T20:44:25.389Z,12.40
2019-05-10T20:46:53.971Z,12.30
2019-05-10T20:49:22.596Z,12.20
2019-05-10T20:51:51.212Z,12.10
2019-05-10T20:54:20.965Z,12.10
2019-05-10T20:56:49.579Z,12.00
2019-05-10T20:59:18.185Z,11.90
2019-05-10T21:01:46.769Z,11.80
2019-05-10T21:04:15.384Z,11.70
2019-05-10T21:06:43.988Z,11.60
2019-05-10T21:09:12.577Z,11.60
2019-05-10T21:11:41.207Z,11.50
2019-05-10T21:14:09.898Z,11.50
2019-05-10T21:16:38.561Z,11.40
2019-05-10T21:19:07.240Z,11.40
2019-05-10T21:21:35.860Z,11.30
2019-05-10T21:24:04.465Z,11.30
2019-05-10T21:26:33.080Z,11.20
2019-05-10T21:29:02.155Z,11.20
2019-05-10T21:31:30.988Z,11.10
2019-05-10T21:34:09.122Z,11.00
2019-05-10T21:36:29.965Z,10.90
2019-05-10T21:38:58.551Z,10.80
2019-05-10T21:41:27.164Z,10.80
2019-05-10T21:43:55.764Z,10.70
2019-05-10T21:46:24.356Z,10.60
2019-05-10T21:48:52.971Z,10.60
2019-05-10T21:51:21.579Z,10.50
2019-05-10T21:53:50.187Z,10.50
2019-05-10T21:56:18.799Z,10.50
2019-05-10T21:58:47.416Z,10.50
2019-05-10T22:01:16.024Z,10.50
2019-05-10T22:03:44.637Z,10.50
2019-05-10T22:06:14.325Z,10.50
2019-05-10T22:08:49.594Z,10.40
2019-05-10T22:11:14.251Z,10.40
2019-05-10T22:13:42.929Z,10.40
2019-05-10T22:16:11.541Z,10.30
2019-05-10T22:18:40.205Z,10.30
2019-05-10T22:21:08.812Z,10.30
2019-05-10T22:23:37.422Z,10.30
2019-05-10T22:26:06.035Z,10.30
2019-05-10T22:28:34.645Z,10.30
2019-05-10T22:31:03.255Z,10.30
2019-05-10T22:33:31.900Z,10.30
2019-05-10T22:36:00.484Z,10.30
2019-05-10T22:38:29.097Z,10.30
2019-05-10T22:40:57.685Z,10.40
2019-05-10T22:43:26.297Z,10.30
2019-05-10T22:45:54.913Z,10.40
2019-05-10T22:48:23.545Z,10.40
2019-05-10T22:50:52.154Z,10.40
2019-05-10T22:53:20.778Z,10.40
2019-05-10T22:55:49.384Z,10.40
2019-05-10T22:58:18.037Z,10.40
2019-05-10T23:00:46.688Z,10.40
2019-05-10T23:03:15.317Z,10.50
2019-05-10T23:05:44.017Z,10.40
2019-05-10T23:08:12.703Z,10.50
2019-05-10T23:10:41.385Z,10.50
2019-05-10T23:13:10.001Z,10.40
2019-05-10T23:15:38.624Z,10.50
2019-05-10T23:18:07.240Z,10.40
2019-05-10T23:20:35.856Z,10.40
2019-05-10T23:23:04.461Z,10.40
2019-05-10T23:25:33.077Z,10.40
2019-05-10T23:28:01.683Z,10.40
2019-05-10T23:30:30.302Z,10.30
2019-05-10T23:32:58.912Z,10.40
2019-05-10T23:35:27.541Z,10.40
2019-05-10T23:37:56.146Z,10.40
2019-05-10T23:40:24.754Z,10.40
2019-05-10T23:42:53.365Z,10.40
2019-05-10T23:45:21.966Z,10.40
2019-05-10T23:47:50.584Z,10.40
2019-05-10T23:50:19.209Z,10.40
2019-05-10T23:52:47.806Z,10.40
2019-05-10T23:55:16.418Z,10.40
2019-05-10T23:57:45.026Z,10.40
